Погода Кампусна 2 недели

Рио-де-Жанейро, Бразилия

25 июля-06 августа
  • 25июля
    Сегодня
    +16°
    +29°
    Практически безоблачно
    ВремяПогодаТемператураВлажностьДавлениеВетер, м/сВероятность осадков
    00:00Практически безоблачно+17°C98 %769 мм0.7 м/с12 %
    03:00Облачно с прояснениями+17°C99 %767 мм0.9 м/с11 %
    06:00Пасмурно, сплошная облачность+15°C99 %767 мм1.1 м/с3 %
    09:00Ясно и безоблачно+22°C79 %768 мм0.9 м/с2 %
    12:00Ясно и безоблачно+27°C47 %767 мм2.7 м/с3 %
    15:00Практически безоблачно+28°C41 %764 мм2.7 м/с5 %
    18:00Ясно и безоблачно+21°C77 %765 мм3.3 м/с5 %
    21:00Ясно и безоблачно+20°C81 %765 мм2.9 м/с5 %
  • 26июля
    Пятница
    +16°
    +29°
    Ясно и безоблачно
    ВремяПогодаТемператураВлажностьДавлениеВетер, м/сВероятность осадков
    00:00Ясно и безоблачно+20°C83 %765 мм3.1 м/с5 %
    03:00Ясно и безоблачно+18°C84 %764 мм2.5 м/с5 %
    06:00Ясно и безоблачно+16°C94 %765 мм2.0 м/с5 %
    09:00Ясно и безоблачно+23°C62 %766 мм1.0 м/с5 %
    12:00Ясно и безоблачно+28°C34 %765 мм4.3 м/с5 %
    15:00Ясно и безоблачно+29°C30 %763 мм2.3 м/с5 %
    18:00Ясно и безоблачно+22°C76 %764 мм3.8 м/с5 %
    21:00Небольшая облачность+21°C88 %765 мм3.2 м/с5 %
  • 27июля
    Суббота
    +17°
    +31°
    Практически безоблачно
    ВремяПогодаТемператураВлажностьДавлениеВетер, м/сВероятность осадков
    00:00Облачно с прояснениями+20°C93 %765 мм2.1 м/с5 %
    03:00Небольшая облачность+18°C97 %764 мм1.7 м/с5 %
    06:00Облачно с прояснениями+17°C99 %764 мм1.7 м/с5 %
    09:00Практически безоблачно+22°C76 %766 мм0.9 м/с5 %
    12:00Практически безоблачно+29°C36 %765 мм2.7 м/с5 %
    15:00Практически безоблачно+30°C29 %764 мм1.4 м/с5 %
    18:00Ясно и безоблачно+23°C77 %765 мм4.3 м/с5 %
    21:00Ясно и безоблачно+21°C90 %766 мм2.8 м/с5 %
  • 28июля
    Воскресенье
    +18°
    +31°
    Практически безоблачно
    ВремяПогодаТемператураВлажностьДавлениеВетер, м/сВероятность осадков
    00:00Ясно и безоблачно+20°C91 %766 мм2.3 м/с5 %
    03:00Ясно и безоблачно+19°C89 %765 мм1.3 м/с5 %
    06:00Ясно и безоблачно+18°C96 %765 мм2.0 м/с5 %
    09:00Ясно и безоблачно+23°C69 %767 мм1.0 м/с5 %
    12:00Ясно и безоблачно+29°C40 %765 мм2.8 м/с5 %
    15:00Практически безоблачно+28°C42 %764 мм4.8 м/с5 %
    18:00Ясно и безоблачно+23°C79 %765 мм4.6 м/с5 %
    21:00Ясно и безоблачно+22°C84 %766 мм4.3 м/с5 %
Мы используем cookies
Соглашаюсь